createdAt,value
2022-11-09T00:03:06.597Z,5.00
2022-11-09T00:08:17.582Z,5.30
2022-11-09T00:13:31.713Z,5.60
2022-11-09T00:18:39.603Z,5.50
2022-11-09T00:23:55.382Z,5.30
2022-11-09T00:29:11.043Z,5.60
2022-11-09T00:34:14.830Z,5.10
2022-11-09T00:39:19.170Z,5.40
2022-11-09T00:44:22.892Z,5.30
2022-11-09T00:49:27.030Z,5.10
2022-11-09T00:54:30.974Z,4.80
2022-11-09T00:59:34.826Z,5.70
2022-11-09T01:04:38.615Z,5.70
2022-11-09T01:09:42.649Z,5.40
2022-11-09T01:14:46.372Z,5.00
2022-11-09T01:19:53.272Z,5.60
2022-11-09T01:24:59.667Z,5.50
2022-11-09T01:30:03.690Z,5.90
2022-11-09T01:35:09.157Z,5.30
2022-11-09T01:40:13.392Z,5.10
2022-11-09T01:45:24.915Z,5.40
2022-11-09T01:50:37.870Z,5.50
2022-11-09T01:55:45.465Z,5.10
2022-11-09T02:00:51.599Z,5.60
2022-11-09T02:05:55.871Z,5.00
2022-11-09T02:11:13.354Z,5.10
2022-11-09T02:16:18.882Z,5.30
2022-11-09T02:21:24.990Z,5.80
2022-11-09T02:26:45.969Z,5.00
2022-11-09T02:31:55.291Z,4.80
2022-11-09T02:36:59.147Z,5.30
2022-11-09T02:42:17.054Z,5.70
2022-11-09T02:47:52.772Z,5.70
2022-11-09T02:53:16.814Z,5.10
2022-11-09T02:58:37.504Z,5.80
2022-11-09T03:03:46.704Z,5.50
2022-11-09T03:08:50.537Z,4.90
2022-11-09T03:13:55.103Z,5.50
2022-11-09T03:18:59.379Z,5.20
2022-11-09T03:24:04.582Z,6.00
2022-11-09T03:29:09.428Z,5.70
2022-11-09T03:34:13.556Z,5.40
2022-11-09T03:39:17.387Z,5.90
2022-11-09T03:44:21.429Z,5.50
2022-11-09T03:49:24.943Z,5.00
2022-11-09T03:54:28.563Z,5.40
2022-11-09T03:59:32.492Z,5.20
2022-11-09T04:04:36.114Z,5.00
2022-11-09T04:09:39.944Z,5.00
2022-11-09T04:14:43.705Z,5.80
2022-11-09T04:19:48.625Z,5.30
2022-11-09T04:24:52.859Z,5.30
2022-11-09T04:29:57.102Z,5.40
2022-11-09T04:35:01.138Z,5.40
2022-11-09T04:40:05.368Z,5.30
2022-11-09T04:45:10.380Z,5.00
2022-11-09T04:50:15.069Z,4.80
2022-11-09T04:55:18.793Z,5.00
2022-11-09T05:00:22.523Z,4.90
2022-11-09T05:05:27.629Z,4.80
2022-11-09T05:10:33.409Z,4.90
2022-11-09T05:15:37.898Z,5.40
2022-11-09T05:20:41.618Z,4.90
2022-11-09T05:25:45.857Z,5.20
2022-11-09T05:30:49.477Z,4.80
2022-11-09T05:35:56.683Z,4.90
2022-11-09T05:41:00.308Z,5.10
2022-11-09T05:46:06.750Z,5.40
2022-11-09T05:51:12.873Z,4.90
2022-11-09T05:56:16.464Z,5.10
2022-11-09T06:01:20.061Z,4.30
2022-11-09T06:06:26.983Z,5.00
2022-11-09T06:11:30.850Z,5.20
2022-11-09T06:16:34.571Z,4.70
2022-11-09T06:21:38.398Z,5.00
2022-11-09T06:26:42.132Z,4.60
2022-11-09T06:31:46.468Z,4.80
2022-11-09T06:36:50.400Z,5.30
2022-11-09T06:41:53.916Z,5.00
2022-11-09T06:46:57.539Z,4.70
2022-11-09T06:52:01.370Z,5.00
2022-11-09T06:57:06.326Z,5.00
2022-11-09T07:02:16.714Z,5.20
2022-11-09T07:07:24.942Z,5.70
2022-11-09T07:12:33.466Z,5.00
2022-11-09T07:17:40.052Z,5.30
2022-11-09T07:22:43.782Z,5.60
2022-11-09T07:27:47.506Z,6.10
2022-11-09T07:33:08.481Z,6.30
2022-11-09T07:38:14.103Z,6.20
2022-11-09T07:43:18.906Z,6.00
2022-11-09T07:48:26.559Z,5.90
2022-11-09T07:53:30.520Z,6.20
2022-11-09T07:58:36.461Z,6.20
2022-11-09T08:03:40.391Z,5.90
2022-11-09T08:08:52.716Z,6.20
2022-11-09T08:13:57.052Z,6.30
2022-11-09T08:19:00.675Z,6.50
2022-11-09T08:24:06.101Z,6.30
2022-11-09T08:29:09.764Z,6.30
2022-11-09T08:34:15.642Z,6.50
2022-11-09T08:39:22.602Z,6.30
2022-11-09T08:44:27.283Z,6.10
2022-11-09T08:49:31.420Z,6.90
2022-11-09T08:54:39.216Z,6.50
2022-11-09T08:59:45.216Z,6.40
2022-11-09T09:04:53.690Z,6.20
2022-11-09T09:10:01.995Z,6.90
2022-11-09T09:15:09.131Z,6.90
2022-11-09T09:20:13.693Z,6.80
2022-11-09T09:25:22.633Z,6.50
2022-11-09T09:30:27.043Z,7.50
2022-11-09T09:35:31.165Z,7.30
2022-11-09T09:40:58.876Z,7.10
2022-11-09T09:46:12.907Z,6.70
2022-11-09T09:51:33.090Z,7.20
2022-11-09T09:56:41.412Z,6.80
2022-11-09T10:01:53.175Z,7.30
2022-11-09T10:07:37.058Z,7.80
2022-11-09T10:13:05.038Z,8.00
2022-11-09T10:18:20.881Z,8.50
2022-11-09T10:23:52.577Z,7.90
2022-11-09T10:29:15.806Z,8.10
2022-11-09T10:34:39.455Z,8.10
2022-11-09T10:39:58.837Z,7.50
2022-11-09T10:45:34.183Z,7.20
2022-11-09T10:50:56.637Z,8.00
2022-11-09T10:56:21.810Z,7.80
2022-11-09T11:01:45.076Z,7.80
2022-11-09T11:07:20.480Z,7.20
2022-11-09T11:12:46.838Z,7.70
2022-11-09T11:18:24.817Z,8.20
2022-11-09T11:24:19.633Z,7.90
2022-11-09T11:29:55.880Z,7.80
2022-11-09T11:35:28.360Z,7.20
2022-11-09T11:41:03.599Z,7.40
2022-11-09T11:46:47.715Z,7.60
2022-11-09T11:52:20.434Z,7.70
2022-11-09T11:58:16.779Z,7.90
2022-11-09T12:04:06.321Z,7.10
2022-11-09T12:09:34.418Z,7.60
2022-11-09T12:15:34.828Z,6.80
2022-11-09T12:21:17.136Z,7.50
2022-11-09T12:27:31.507Z,7.70
2022-11-09T12:33:02.797Z,7.60
2022-11-09T12:38:53.009Z,7.90
2022-11-09T12:44:24.780Z,7.50
2022-11-09T12:49:48.561Z,7.20
2022-11-09T12:55:20.193Z,7.40
2022-11-09T13:00:48.355Z,7.50
2022-11-09T13:06:24.060Z,7.80
2022-11-09T13:11:49.822Z,8.30
2022-11-09T13:17:21.244Z,8.20
2022-11-09T13:22:43.699Z,8.10
2022-11-09T13:28:29.273Z,7.10
2022-11-09T13:34:30.305Z,7.90
2022-11-09T13:45:46.627Z,7.90
2022-11-09T13:51:13.340Z,7.60
2022-11-09T13:56:40.643Z,7.70
2022-11-09T14:02:05.418Z,7.70
2022-11-09T14:07:35.438Z,8.20
2022-11-09T14:13:23.674Z,7.50
2022-11-09T14:19:06.128Z,8.10
2022-11-09T14:24:33.041Z,7.90
2022-11-09T14:30:02.818Z,7.50
2022-11-09T14:35:36.996Z,7.90
2022-11-09T14:40:59.985Z,8.30
2022-11-09T14:46:31.847Z,8.20
2022-11-09T14:51:54.401Z,8.00
2022-11-09T14:57:17.774Z,8.20
2022-11-09T15:02:40.328Z,8.40
2022-11-09T15:08:03.190Z,8.20
2022-11-09T15:13:32.483Z,8.40
2022-11-09T15:18:55.166Z,8.40
2022-11-09T15:24:19.147Z,8.00
2022-11-09T15:29:43.900Z,9.40
2022-11-09T15:35:16.365Z,8.00
2022-11-09T15:40:39.292Z,8.70
2022-11-09T15:46:02.124Z,9.10
2022-11-09T15:51:24.511Z,8.00
2022-11-09T15:56:48.446Z,8.40
2022-11-09T16:02:12.281Z,8.80
2022-11-09T16:07:37.593Z,9.10
2022-11-09T16:13:02.910Z,9.20
2022-11-09T16:18:28.832Z,9.40
2022-11-09T16:23:57.125Z,10.20
2022-11-09T16:29:29.378Z,9.80
2022-11-09T16:35:15.461Z,9.80
2022-11-09T16:40:38.654Z,9.50
2022-11-09T16:46:03.990Z,9.80
2022-11-09T16:51:33.086Z,9.80
2022-11-09T16:56:56.471Z,9.70
2022-11-09T17:02:25.258Z,10.20
2022-11-09T17:07:48.837Z,10.80
2022-11-09T17:13:13.443Z,11.30
2022-11-09T17:18:40.685Z,11.00
2022-11-09T17:24:08.797Z,10.70
2022-11-09T17:29:38.098Z,11.30
2022-11-09T17:35:02.485Z,11.60
2022-11-09T17:40:26.788Z,11.00
2022-11-09T17:45:49.133Z,10.70
2022-11-09T17:51:12.403Z,12.10
2022-11-09T17:56:35.467Z,10.90
2022-11-09T18:01:57.649Z,11.70
2022-11-09T18:07:20.182Z,9.70
2022-11-09T18:12:43.336Z,11.20
2022-11-09T18:18:07.734Z,9.90
2022-11-09T18:23:29.883Z,10.20
2022-11-09T18:28:52.436Z,10.20
2022-11-09T18:34:19.291Z,10.00
2022-11-09T18:39:46.140Z,10.70
2022-11-09T18:45:10.168Z,10.50
2022-11-09T18:50:32.274Z,10.40
2022-11-09T18:56:10.658Z,11.30
2022-11-09T19:01:33.346Z,11.00
2022-11-09T19:06:55.745Z,10.50
2022-11-09T19:12:18.370Z,10.80
2022-11-09T19:17:44.498Z,10.70
2022-11-09T19:23:16.571Z,11.70
2022-11-09T19:28:38.724Z,10.80
2022-11-09T19:34:10.251Z,10.40
2022-11-09T19:39:34.744Z,10.10
2022-11-09T19:45:03.165Z,10.30
2022-11-09T19:56:14.874Z,10.80
2022-11-09T20:01:38.014Z,11.20
2022-11-09T20:07:04.925Z,11.00
2022-11-09T20:12:48.847Z,11.30
2022-11-09T20:18:17.913Z,11.70
2022-11-09T20:23:40.802Z,11.50
2022-11-09T20:29:03.667Z,11.40
2022-11-09T20:34:30.220Z,10.80
2022-11-09T20:39:57.938Z,11.20
2022-11-09T20:45:21.880Z,11.20
2022-11-09T20:50:51.924Z,11.40
2022-11-09T20:56:19.428Z,12.40
2022-11-09T21:01:42.822Z,11.90
2022-11-09T21:07:11.561Z,11.70
2022-11-09T21:12:49.467Z,11.30
2022-11-09T21:18:13.014Z,10.60
2022-11-09T21:23:57.379Z,11.30
2022-11-09T21:29:42.544Z,11.10
2022-11-09T21:35:06.320Z,11.60
2022-11-09T21:40:34.197Z,12.10
2022-11-09T21:46:04.628Z,10.60
2022-11-09T21:51:32.731Z,10.60
2022-11-09T21:56:58.259Z,10.80
2022-11-09T22:02:24.267Z,10.70
2022-11-09T22:07:46.928Z,10.70
2022-11-09T22:13:33.563Z,10.50
2022-11-09T22:19:16.245Z,10.70
2022-11-09T22:24:39.990Z,10.30
2022-11-09T22:30:02.782Z,9.70
2022-11-09T22:35:25.240Z,9.50
2022-11-09T22:40:47.586Z,10.90
2022-11-09T22:46:17.520Z,9.70
2022-11-09T22:51:39.961Z,10.00
2022-11-09T22:57:04.974Z,9.70
2022-11-09T23:02:27.324Z,9.30
2022-11-09T23:07:49.609Z,9.20
2022-11-09T23:13:12.229Z,9.70
2022-11-09T23:18:54.100Z,9.60
2022-11-09T23:24:37.417Z,9.70
2022-11-09T23:29:59.395Z,9.30
2022-11-09T23:35:21.641Z,9.40
2022-11-09T23:40:44.400Z,10.20
2022-11-09T23:46:13.516Z,8.90
2022-11-09T23:51:35.856Z,9.00
2022-11-09T23:57:00.764Z,9.40
